Terminal Aerodrome Forecast
Issued by NWS

Home | Current Version | Previous Version | Text Only | Print | Product List | Glossary Off
Versions: 1 2 3 4 5 6 7 8 9 10 11 12 13 14

000
FTUS43 KGRB 192334
TAFCWA
TAF
KCWA 192334Z 2000/2024 15010KT P6SM VCSH BKN050 WS020/20035KT
     FM200300 16008KT P6SM SCT050 BKN200 WS020/23035KT
     FM200600 VRB03KT P6SM BKN200
     FM200900 VRB03KT 6SM BR BKN012
      TEMPO 2010/2014 3SM BR BKN007
     FM201500 35010KT P6SM BKN100
     FM202200 35006KT P6SM BKN150
      AMD LTD TO CLD VIS AND WIND 2003/2011=

USA.gov is the U.S. government's official web portal to all federal, state and local government web resources and services.